KCOQ

Cloquet Carlton County Airport

Cloquet, Minnesota, USA
METAR KCOQ 202015Z AUTO 09007KT 7SM BKN011 OVC017 19/16 A3003 RMK AO2 LTG DSNT N AND S
Observed Flight Rules
Aug-20 @ 20:15 UTC (15 minutes ago) Marginal Visual Flight Rules
Wind Visibility Clouds
90° at 7 knots 7 miles
  • Broken at 1,100' AGL
  • Overcast at 1,700' AGL
Temperatures Readings
Current 19°C / 66°F
Dewpoint 16°C / 61°F
Humidity 83%
Altimeter 30.03" Hg
Pressure 1017 hPa
Elevation 390
METAR KCOQ 202015Z AUTO 09007KT 7SM BKN011 OVC017 19/16 A3003 RMK AO2 LTG DSNT N AND S
Observed Flight Rules
Aug-20 @ 20:15 UTC
(15 minutes ago)
MVFR
Wind Visibility
90° at 7 knots 7 miles
Clouds
  • Broken at 1,100' AGL
  • Overcast at 1,700' AGL
Temperature Dewpoint
19°C / 66°F 16°C / 61°F
Humidity Altimeter Pressure
83% 30.03" Hg 1017 hPa